sensor_id;sensor_type;location;lat;lon;timestamp;temperature;humidity
36716;DHT22;22699;51.034;3.730;2022-12-11T00:01:17;3.30;99.90
36716;DHT22;22699;51.034;3.730;2022-12-11T00:03:43;3.20;99.90
36716;DHT22;22699;51.034;3.730;2022-12-11T00:06:18;3.20;99.90
36716;DHT22;22699;51.034;3.730;2022-12-11T00:08:44;3.30;99.90
36716;DHT22;22699;51.034;3.730;2022-12-11T00:11:12;3.10;99.90
36716;DHT22;22699;51.034;3.730;2022-12-11T00:13:38;3.10;99.90
36716;DHT22;22699;51.034;3.730;2022-12-11T00:16:04;3.00;99.90
36716;DHT22;22699;51.034;3.730;2022-12-11T00:18:29;2.90;99.90
36716;DHT22;22699;51.034;3.730;2022-12-11T00:21:02;2.90;99.90
36716;DHT22;22699;51.034;3.730;2022-12-11T00:23:28;2.90;99.90
36716;DHT22;22699;51.034;3.730;2022-12-11T00:25:54;2.90;99.90
36716;DHT22;22699;51.034;3.730;2022-12-11T00:28:20;2.90;99.90
36716;DHT22;22699;51.034;3.730;2022-12-11T00:30:46;3.00;99.90
36716;DHT22;22699;51.034;3.730;2022-12-11T00:33:13;3.00;99.90
36716;DHT22;22699;51.034;3.730;2022-12-11T00:35:41;3.10;99.90
36716;DHT22;22699;51.034;3.730;2022-12-11T00:38:06;3.20;99.90
36716;DHT22;22699;51.034;3.730;2022-12-11T00:40:34;3.20;99.90
36716;DHT22;22699;51.034;3.730;2022-12-11T00:43:00;3.30;99.90
36716;DHT22;22699;51.034;3.730;2022-12-11T00:45:25;3.20;99.90
36716;DHT22;22699;51.034;3.730;2022-12-11T00:47:51;3.00;99.90
36716;DHT22;22699;51.034;3.730;2022-12-11T00:50:17;3.00;99.90
36716;DHT22;22699;51.034;3.730;2022-12-11T00:52:44;3.20;99.90
36716;DHT22;22699;51.034;3.730;2022-12-11T00:55:12;3.30;99.90
36716;DHT22;22699;51.034;3.730;2022-12-11T00:57:38;3.40;99.90
36716;DHT22;22699;51.034;3.730;2022-12-11T01:00:06;3.20;99.90
36716;DHT22;22699;51.034;3.730;2022-12-11T01:02:32;3.40;99.90
36716;DHT22;22699;51.034;3.730;2022-12-11T01:04:58;3.40;99.90
36716;DHT22;22699;51.034;3.730;2022-12-11T01:07:24;3.30;99.90
36716;DHT22;22699;51.034;3.730;2022-12-11T01:09:50;3.30;99.90
36716;DHT22;22699;51.034;3.730;2022-12-11T01:12:35;3.30;99.90
36716;DHT22;22699;51.034;3.730;2022-12-11T01:15:00;3.30;99.90
36716;DHT22;22699;51.034;3.730;2022-12-11T01:17:26;3.30;99.90
36716;DHT22;22699;51.034;3.730;2022-12-11T01:19:55;3.40;99.90
36716;DHT22;22699;51.034;3.730;2022-12-11T01:22:22;3.30;99.90
36716;DHT22;22699;51.034;3.730;2022-12-11T01:24:48;3.40;99.90
36716;DHT22;22699;51.034;3.730;2022-12-11T01:27:14;3.40;99.90
36716;DHT22;22699;51.034;3.730;2022-12-11T01:29:40;3.40;99.90
36716;DHT22;22699;51.034;3.730;2022-12-11T01:32:05;3.40;99.90
36716;DHT22;22699;51.034;3.730;2022-12-11T01:34:32;3.50;99.90
36716;DHT22;22699;51.034;3.730;2022-12-11T01:36:58;3.20;99.90
36716;DHT22;22699;51.034;3.730;2022-12-11T01:39:24;3.10;99.90
36716;DHT22;22699;51.034;3.730;2022-12-11T01:41:50;3.10;99.90
36716;DHT22;22699;51.034;3.730;2022-12-11T01:46:47;3.30;99.90
36716;DHT22;22699;51.034;3.730;2022-12-11T01:49:14;3.30;99.90
36716;DHT22;22699;51.034;3.730;2022-12-11T01:52:15;3.30;99.90
36716;DHT22;22699;51.034;3.730;2022-12-11T01:54:41;3.20;99.90
36716;DHT22;22699;51.034;3.730;2022-12-11T01:57:10;3.20;99.90
36716;DHT22;22699;51.034;3.730;2022-12-11T01:59:38;3.40;99.90
36716;DHT22;22699;51.034;3.730;2022-12-11T02:02:16;3.30;99.90
36716;DHT22;22699;51.034;3.730;2022-12-11T02:04:44;3.30;99.90
36716;DHT22;22699;51.034;3.730;2022-12-11T02:07:10;3.40;99.90
36716;DHT22;22699;51.034;3.730;2022-12-11T02:09:37;3.50;99.90
36716;DHT22;22699;51.034;3.730;2022-12-11T02:18:08;3.30;99.90
36716;DHT22;22699;51.034;3.730;2022-12-11T02:20:42;3.50;99.90
36716;DHT22;22699;51.034;3.730;2022-12-11T02:28:56;3.30;99.90
36716;DHT22;22699;51.034;3.730;2022-12-11T02:33:57;3.50;99.90
36716;DHT22;22699;51.034;3.730;2022-12-11T02:36:25;3.50;99.90
36716;DHT22;22699;51.034;3.730;2022-12-11T02:38:55;3.60;99.90
36716;DHT22;22699;51.034;3.730;2022-12-11T02:41:23;3.60;99.90
36716;DHT22;22699;51.034;3.730;2022-12-11T02:43:50;3.50;99.90
36716;DHT22;22699;51.034;3.730;2022-12-11T02:46:17;3.30;99.90
36716;DHT22;22699;51.034;3.730;2022-12-11T02:48:45;3.50;99.90
36716;DHT22;22699;51.034;3.730;2022-12-11T02:51:13;3.60;99.90
36716;DHT22;22699;51.034;3.730;2022-12-11T02:53:41;3.40;99.90
36716;DHT22;22699;51.034;3.730;2022-12-11T02:56:15;3.30;99.90
36716;DHT22;22699;51.034;3.730;2022-12-11T02:58:47;3.30;99.90
36716;DHT22;22699;51.034;3.730;2022-12-11T03:01:14;3.20;99.90
36716;DHT22;22699;51.034;3.730;2022-12-11T03:03:40;3.30;99.90
36716;DHT22;22699;51.034;3.730;2022-12-11T03:06:10;3.20;99.90
36716;DHT22;22699;51.034;3.730;2022-12-11T03:08:38;3.20;99.90
36716;DHT22;22699;51.034;3.730;2022-12-11T03:11:04;3.40;99.90
36716;DHT22;22699;51.034;3.730;2022-12-11T03:13:29;3.40;99.90
36716;DHT22;22699;51.034;3.730;2022-12-11T03:22:09;3.40;99.90
36716;DHT22;22699;51.034;3.730;2022-12-11T03:24:47;3.40;99.90
36716;DHT22;22699;51.034;3.730;2022-12-11T03:27:19;3.30;99.90
36716;DHT22;22699;51.034;3.730;2022-12-11T03:30:11;3.20;99.90
36716;DHT22;22699;51.034;3.730;2022-12-11T03:33:05;3.40;99.90
36716;DHT22;22699;51.034;3.730;2022-12-11T03:35:44;3.50;99.90
36716;DHT22;22699;51.034;3.730;2022-12-11T03:38:20;3.50;99.90
36716;DHT22;22699;51.034;3.730;2022-12-11T03:40:50;3.30;99.90
36716;DHT22;22699;51.034;3.730;2022-12-11T03:43:19;3.30;99.90
36716;DHT22;22699;51.034;3.730;2022-12-11T03:45:47;3.40;99.90
36716;DHT22;22699;51.034;3.730;2022-12-11T03:48:15;3.60;99.90
36716;DHT22;22699;51.034;3.730;2022-12-11T03:50:42;3.50;99.90
36716;DHT22;22699;51.034;3.730;2022-12-11T03:53:10;3.50;99.90
36716;DHT22;22699;51.034;3.730;2022-12-11T03:55:36;3.40;99.90
36716;DHT22;22699;51.034;3.730;2022-12-11T03:58:04;3.30;99.90
36716;DHT22;22699;51.034;3.730;2022-12-11T04:00:32;3.30;99.90
36716;DHT22;22699;51.034;3.730;2022-12-11T04:02:57;3.30;99.90
36716;DHT22;22699;51.034;3.730;2022-12-11T04:05:44;3.30;99.90
36716;DHT22;22699;51.034;3.730;2022-12-11T04:08:10;3.50;99.90
36716;DHT22;22699;51.034;3.730;2022-12-11T04:10:37;3.70;99.90
36716;DHT22;22699;51.034;3.730;2022-12-11T04:13:03;3.50;99.90
36716;DHT22;22699;51.034;3.730;2022-12-11T04:15:28;3.80;99.90
36716;DHT22;22699;51.034;3.730;2022-12-11T04:17:54;3.40;99.90
36716;DHT22;22699;51.034;3.730;2022-12-11T04:20:38;3.50;99.90
36716;DHT22;22699;51.034;3.730;2022-12-11T04:23:23;3.60;99.90
36716;DHT22;22699;51.034;3.730;2022-12-11T04:26:13;3.70;99.90
36716;DHT22;22699;51.034;3.730;2022-12-11T04:28:40;3.70;99.90
36716;DHT22;22699;51.034;3.730;2022-12-11T04:31:09;3.60;99.90
36716;DHT22;22699;51.034;3.730;2022-12-11T04:33:34;3.60;99.90
36716;DHT22;22699;51.034;3.730;2022-12-11T04:36:00;3.50;99.90
36716;DHT22;22699;51.034;3.730;2022-12-11T04:38:26;3.40;99.90
36716;DHT22;22699;51.034;3.730;2022-12-11T04:41:07;3.40;99.90
36716;DHT22;22699;51.034;3.730;2022-12-11T04:43:33;3.50;99.90
36716;DHT22;22699;51.034;3.730;2022-12-11T04:46:07;3.60;99.90
36716;DHT22;22699;51.034;3.730;2022-12-11T04:48:33;3.60;99.90
36716;DHT22;22699;51.034;3.730;2022-12-11T04:51:01;3.60;99.90
36716;DHT22;22699;51.034;3.730;2022-12-11T04:53:28;3.30;99.90
36716;DHT22;22699;51.034;3.730;2022-12-11T04:55:54;3.30;99.90
36716;DHT22;22699;51.034;3.730;2022-12-11T04:58:20;3.40;99.90
36716;DHT22;22699;51.034;3.730;2022-12-11T05:00:46;3.60;99.90
36716;DHT22;22699;51.034;3.730;2022-12-11T05:03:12;3.60;99.90
36716;DHT22;22699;51.034;3.730;2022-12-11T05:05:38;3.60;99.90
36716;DHT22;22699;51.034;3.730;2022-12-11T05:08:04;3.40;99.90
36716;DHT22;22699;51.034;3.730;2022-12-11T05:10:30;3.40;99.90
36716;DHT22;22699;51.034;3.730;2022-12-11T05:12:56;3.40;99.90
36716;DHT22;22699;51.034;3.730;2022-12-11T05:15:22;3.20;99.90
36716;DHT22;22699;51.034;3.730;2022-12-11T05:17:48;3.20;99.90
36716;DHT22;22699;51.034;3.730;2022-12-11T05:20:13;3.30;99.90
36716;DHT22;22699;51.034;3.730;2022-12-11T05:22:39;3.30;99.90
36716;DHT22;22699;51.034;3.730;2022-12-11T05:25:05;3.60;99.90
36716;DHT22;22699;51.034;3.730;2022-12-11T05:27:32;3.50;99.90
36716;DHT22;22699;51.034;3.730;2022-12-11T05:29:58;3.40;99.90
36716;DHT22;22699;51.034;3.730;2022-12-11T05:32:23;3.50;99.90
36716;DHT22;22699;51.034;3.730;2022-12-11T05:34:49;3.60;99.90
36716;DHT22;22699;51.034;3.730;2022-12-11T05:37:15;3.60;99.90
36716;DHT22;22699;51.034;3.730;2022-12-11T05:39:41;3.70;99.90
36716;DHT22;22699;51.034;3.730;2022-12-11T05:42:07;3.70;99.90
36716;DHT22;22699;51.034;3.730;2022-12-11T05:44:32;3.50;99.90
36716;DHT22;22699;51.034;3.730;2022-12-11T05:46:58;3.60;99.90
36716;DHT22;22699;51.034;3.730;2022-12-11T05:49:25;3.90;99.90
36716;DHT22;22699;51.034;3.730;2022-12-11T05:51:50;3.90;99.90
36716;DHT22;22699;51.034;3.730;2022-12-11T05:54:16;3.90;99.90
36716;DHT22;22699;51.034;3.730;2022-12-11T05:56:42;3.80;99.90
36716;DHT22;22699;51.034;3.730;2022-12-11T05:59:08;3.40;99.90
36716;DHT22;22699;51.034;3.730;2022-12-11T06:01:37;3.40;99.90
36716;DHT22;22699;51.034;3.730;2022-12-11T06:04:04;3.60;99.90
36716;DHT22;22699;51.034;3.730;2022-12-11T06:06:30;3.70;99.90
36716;DHT22;22699;51.034;3.730;2022-12-11T06:08:58;3.70;99.90
36716;DHT22;22699;51.034;3.730;2022-12-11T06:11:26;3.60;99.90
36716;DHT22;22699;51.034;3.730;2022-12-11T06:13:53;3.60;99.90
36716;DHT22;22699;51.034;3.730;2022-12-11T06:16:19;3.50;99.90
36716;DHT22;22699;51.034;3.730;2022-12-11T06:18:46;3.60;99.90
36716;DHT22;22699;51.034;3.730;2022-12-11T06:21:25;3.50;99.90
36716;DHT22;22699;51.034;3.730;2022-12-11T06:23:52;3.50;99.90
36716;DHT22;22699;51.034;3.730;2022-12-11T06:26:19;3.60;99.90
36716;DHT22;22699;51.034;3.730;2022-12-11T06:28:45;3.60;99.90
36716;DHT22;22699;51.034;3.730;2022-12-11T06:31:11;3.40;99.90
36716;DHT22;22699;51.034;3.730;2022-12-11T06:33:37;3.30;99.90
36716;DHT22;22699;51.034;3.730;2022-12-11T06:36:05;3.30;99.90
36716;DHT22;22699;51.034;3.730;2022-12-11T06:38:33;3.40;99.90
36716;DHT22;22699;51.034;3.730;2022-12-11T06:41:00;3.60;99.90
36716;DHT22;22699;51.034;3.730;2022-12-11T06:43:26;3.60;99.90
36716;DHT22;22699;51.034;3.730;2022-12-11T06:45:52;3.80;99.90
36716;DHT22;22699;51.034;3.730;2022-12-11T06:48:18;3.70;99.90
36716;DHT22;22699;51.034;3.730;2022-12-11T06:50:44;3.80;99.90
36716;DHT22;22699;51.034;3.730;2022-12-11T06:53:11;3.60;99.90
36716;DHT22;22699;51.034;3.730;2022-12-11T06:55:37;3.60;99.90
36716;DHT22;22699;51.034;3.730;2022-12-11T06:58:05;3.60;99.90
36716;DHT22;22699;51.034;3.730;2022-12-11T07:00:31;3.60;99.90
36716;DHT22;22699;51.034;3.730;2022-12-11T07:02:57;3.70;99.90
36716;DHT22;22699;51.034;3.730;2022-12-11T07:05:24;3.60;99.90
36716;DHT22;22699;51.034;3.730;2022-12-11T07:07:52;3.70;99.90
36716;DHT22;22699;51.034;3.730;2022-12-11T07:10:19;3.70;99.90
36716;DHT22;22699;51.034;3.730;2022-12-11T07:12:45;3.70;99.90
36716;DHT22;22699;51.034;3.730;2022-12-11T07:15:10;3.50;99.90
36716;DHT22;22699;51.034;3.730;2022-12-11T07:17:36;3.40;99.90
36716;DHT22;22699;51.034;3.730;2022-12-11T07:20:02;3.50;99.90
36716;DHT22;22699;51.034;3.730;2022-12-11T07:22:28;3.40;99.90
36716;DHT22;22699;51.034;3.730;2022-12-11T07:24:54;3.30;99.90
36716;DHT22;22699;51.034;3.730;2022-12-11T07:27:20;3.30;99.90
36716;DHT22;22699;51.034;3.730;2022-12-11T07:29:49;3.50;99.90
36716;DHT22;22699;51.034;3.730;2022-12-11T07:32:15;3.40;99.90
36716;DHT22;22699;51.034;3.730;2022-12-11T07:34:44;3.30;99.90
36716;DHT22;22699;51.034;3.730;2022-12-11T07:37:10;3.20;99.90
36716;DHT22;22699;51.034;3.730;2022-12-11T07:39:37;3.10;99.90
36716;DHT22;22699;51.034;3.730;2022-12-11T07:42:03;2.90;99.90
36716;DHT22;22699;51.034;3.730;2022-12-11T07:44:30;2.90;99.90
36716;DHT22;22699;51.034;3.730;2022-12-11T07:46:58;3.20;99.90
36716;DHT22;22699;51.034;3.730;2022-12-11T07:49:28;3.00;99.90
36716;DHT22;22699;51.034;3.730;2022-12-11T07:51:54;3.00;99.90
36716;DHT22;22699;51.034;3.730;2022-12-11T07:54:19;3.00;99.90
36716;DHT22;22699;51.034;3.730;2022-12-11T07:56:46;3.10;99.90
36716;DHT22;22699;51.034;3.730;2022-12-11T07:59:20;3.20;99.90
36716;DHT22;22699;51.034;3.730;2022-12-11T08:01:46;3.20;99.90
36716;DHT22;22699;51.034;3.730;2022-12-11T08:04:26;3.30;99.90
36716;DHT22;22699;51.034;3.730;2022-12-11T08:06:52;3.30;99.90
36716;DHT22;22699;51.034;3.730;2022-12-11T08:09:21;3.30;99.90
36716;DHT22;22699;51.034;3.730;2022-12-11T08:12:05;3.30;99.90
36716;DHT22;22699;51.034;3.730;2022-12-11T08:14:41;3.30;99.90
36716;DHT22;22699;51.034;3.730;2022-12-11T08:17:23;3.10;99.90
36716;DHT22;22699;51.034;3.730;2022-12-11T08:20:06;3.20;99.90
36716;DHT22;22699;51.034;3.730;2022-12-11T08:22:40;3.10;99.90
36716;DHT22;22699;51.034;3.730;2022-12-11T08:25:43;3.30;99.90
36716;DHT22;22699;51.034;3.730;2022-12-11T08:28:10;3.30;99.90
36716;DHT22;22699;51.034;3.730;2022-12-11T08:31:04;3.10;99.90
36716;DHT22;22699;51.034;3.730;2022-12-11T08:33:49;3.00;99.90
36716;DHT22;22699;51.034;3.730;2022-12-11T08:36:20;2.90;99.90
36716;DHT22;22699;51.034;3.730;2022-12-11T08:38:55;3.00;99.90
36716;DHT22;22699;51.034;3.730;2022-12-11T08:41:29;3.00;99.90
36716;DHT22;22699;51.034;3.730;2022-12-11T08:44:01;3.10;99.90
36716;DHT22;22699;51.034;3.730;2022-12-11T08:46:37;3.00;99.90
36716;DHT22;22699;51.034;3.730;2022-12-11T08:49:04;3.00;99.90
36716;DHT22;22699;51.034;3.730;2022-12-11T08:51:30;2.90;99.90
36716;DHT22;22699;51.034;3.730;2022-12-11T08:54:04;3.10;99.90
36716;DHT22;22699;51.034;3.730;2022-12-11T09:00:06;3.00;99.90
36716;DHT22;22699;51.034;3.730;2022-12-11T09:02:33;3.00;99.90
36716;DHT22;22699;51.034;3.730;2022-12-11T09:04:59;3.10;99.90
36716;DHT22;22699;51.034;3.730;2022-12-11T09:07:25;3.00;99.90
36716;DHT22;22699;51.034;3.730;2022-12-11T09:09:53;3.10;99.90
36716;DHT22;22699;51.034;3.730;2022-12-11T09:12:19;3.30;99.90
36716;DHT22;22699;51.034;3.730;2022-12-11T09:14:44;3.30;99.90
36716;DHT22;22699;51.034;3.730;2022-12-11T09:17:10;3.20;99.90
36716;DHT22;22699;51.034;3.730;2022-12-11T09:19:36;3.30;99.90
36716;DHT22;22699;51.034;3.730;2022-12-11T09:22:02;3.40;99.90
36716;DHT22;22699;51.034;3.730;2022-12-11T09:24:27;3.30;99.90
36716;DHT22;22699;51.034;3.730;2022-12-11T09:26:53;3.40;99.90
36716;DHT22;22699;51.034;3.730;2022-12-11T09:29:21;3.40;99.90
36716;DHT22;22699;51.034;3.730;2022-12-11T09:31:46;3.40;99.90
36716;DHT22;22699;51.034;3.730;2022-12-11T09:34:15;3.40;99.90
36716;DHT22;22699;51.034;3.730;2022-12-11T09:36:45;3.30;99.90
36716;DHT22;22699;51.034;3.730;2022-12-11T09:39:15;3.50;99.90
36716;DHT22;22699;51.034;3.730;2022-12-11T09:44:34;3.70;99.90
36716;DHT22;22699;51.034;3.730;2022-12-11T09:47:02;3.50;99.90
36716;DHT22;22699;51.034;3.730;2022-12-11T09:49:37;3.60;99.90
36716;DHT22;22699;51.034;3.730;2022-12-11T09:52:30;3.80;99.90
36716;DHT22;22699;51.034;3.730;2022-12-11T09:55:01;3.80;99.90
36716;DHT22;22699;51.034;3.730;2022-12-11T10:06:07;3.50;99.90
36716;DHT22;22699;51.034;3.730;2022-12-11T10:08:55;3.40;99.90
36716;DHT22;22699;51.034;3.730;2022-12-11T10:14:31;3.20;99.90
36716;DHT22;22699;51.034;3.730;2022-12-11T10:17:27;3.20;99.90
36716;DHT22;22699;51.034;3.730;2022-12-11T10:20:24;3.30;99.90
36716;DHT22;22699;51.034;3.730;2022-12-11T10:22:51;3.40;99.90
36716;DHT22;22699;51.034;3.730;2022-12-11T10:25:26;3.30;99.90
36716;DHT22;22699;51.034;3.730;2022-12-11T10:27:52;3.40;99.90
36716;DHT22;22699;51.034;3.730;2022-12-11T10:30:20;3.50;99.90
36716;DHT22;22699;51.034;3.730;2022-12-11T10:32:53;3.40;99.90
36716;DHT22;22699;51.034;3.730;2022-12-11T10:35:33;3.20;99.90
36716;DHT22;22699;51.034;3.730;2022-12-11T10:38:24;3.40;99.90
36716;DHT22;22699;51.034;3.730;2022-12-11T10:40:58;3.70;99.90
36716;DHT22;22699;51.034;3.730;2022-12-11T10:43:41;3.70;99.90
36716;DHT22;22699;51.034;3.730;2022-12-11T10:46:23;3.80;99.90
36716;DHT22;22699;51.034;3.730;2022-12-11T10:48:54;3.70;99.90
36716;DHT22;22699;51.034;3.730;2022-12-11T10:51:32;3.70;99.90
36716;DHT22;22699;51.034;3.730;2022-12-11T10:54:15;3.70;99.90
36716;DHT22;22699;51.034;3.730;2022-12-11T10:56:45;3.60;99.90
36716;DHT22;22699;51.034;3.730;2022-12-11T10:59:22;3.50;99.90
36716;DHT22;22699;51.034;3.730;2022-12-11T11:01:48;3.60;99.90
36716;DHT22;22699;51.034;3.730;2022-12-11T11:04:20;3.50;99.90
36716;DHT22;22699;51.034;3.730;2022-12-11T11:06:48;3.80;99.90
36716;DHT22;22699;51.034;3.730;2022-12-11T11:09:34;3.60;99.90
36716;DHT22;22699;51.034;3.730;2022-12-11T11:12:00;3.70;99.90
36716;DHT22;22699;51.034;3.730;2022-12-11T11:14:26;3.60;99.90
36716;DHT22;22699;51.034;3.730;2022-12-11T11:16:55;3.70;99.90
36716;DHT22;22699;51.034;3.730;2022-12-11T11:19:27;3.70;99.90
36716;DHT22;22699;51.034;3.730;2022-12-11T11:21:59;3.40;99.90
36716;DHT22;22699;51.034;3.730;2022-12-11T11:24:37;3.50;99.90
36716;DHT22;22699;51.034;3.730;2022-12-11T11:27:39;3.60;99.90
36716;DHT22;22699;51.034;3.730;2022-12-11T11:30:53;3.80;99.90
36716;DHT22;22699;51.034;3.730;2022-12-11T11:33:21;3.70;99.90
36716;DHT22;22699;51.034;3.730;2022-12-11T11:36:05;3.50;99.90
36716;DHT22;22699;51.034;3.730;2022-12-11T11:38:52;3.40;99.90
36716;DHT22;22699;51.034;3.730;2022-12-11T11:41:33;3.20;99.90
36716;DHT22;22699;51.034;3.730;2022-12-11T11:44:04;3.00;99.90
36716;DHT22;22699;51.034;3.730;2022-12-11T11:47:21;3.20;99.90
36716;DHT22;22699;51.034;3.730;2022-12-11T11:50:20;3.20;99.90
36716;DHT22;22699;51.034;3.730;2022-12-11T11:55:39;3.40;99.90
36716;DHT22;22699;51.034;3.730;2022-12-11T11:58:19;3.30;99.90
36716;DHT22;22699;51.034;3.730;2022-12-11T12:01:01;3.40;99.90
36716;DHT22;22699;51.034;3.730;2022-12-11T12:03:31;3.30;99.90
36716;DHT22;22699;51.034;3.730;2022-12-11T12:09:02;3.60;99.90
36716;DHT22;22699;51.034;3.730;2022-12-11T12:17:45;3.60;99.90
36716;DHT22;22699;51.034;3.730;2022-12-11T12:20:50;3.60;99.90
36716;DHT22;22699;51.034;3.730;2022-12-11T12:26:32;3.50;99.90
36716;DHT22;22699;51.034;3.730;2022-12-11T12:43:13;3.40;99.90
36716;DHT22;22699;51.034;3.730;2022-12-11T12:46:09;3.40;99.90
36716;DHT22;22699;51.034;3.730;2022-12-11T12:48:44;3.50;99.90
36716;DHT22;22699;51.034;3.730;2022-12-11T12:51:18;3.50;99.90
36716;DHT22;22699;51.034;3.730;2022-12-11T12:54:00;3.60;99.90
36716;DHT22;22699;51.034;3.730;2022-12-11T12:56:32;3.50;99.90
36716;DHT22;22699;51.034;3.730;2022-12-11T12:59:01;3.50;99.90
36716;DHT22;22699;51.034;3.730;2022-12-11T13:01:28;3.50;99.90
36716;DHT22;22699;51.034;3.730;2022-12-11T13:03:59;3.50;99.90
36716;DHT22;22699;51.034;3.730;2022-12-11T13:06:43;3.50;99.90
36716;DHT22;22699;51.034;3.730;2022-12-11T13:09:23;3.50;99.90
36716;DHT22;22699;51.034;3.730;2022-12-11T13:11:52;3.60;99.90
36716;DHT22;22699;51.034;3.730;2022-12-11T13:14:30;3.50;99.90
36716;DHT22;22699;51.034;3.730;2022-12-11T13:19:45;3.70;99.90
36716;DHT22;22699;51.034;3.730;2022-12-11T13:22:29;3.70;99.90
36716;DHT22;22699;51.034;3.730;2022-12-11T13:25:01;3.60;99.90
36716;DHT22;22699;51.034;3.730;2022-12-11T13:27:39;3.50;99.90
36716;DHT22;22699;51.034;3.730;2022-12-11T13:32:41;3.50;99.90
36716;DHT22;22699;51.034;3.730;2022-12-11T13:35:15;3.40;99.90
36716;DHT22;22699;51.034;3.730;2022-12-11T13:37:45;3.40;99.90
36716;DHT22;22699;51.034;3.730;2022-12-11T13:40:25;3.50;99.90
36716;DHT22;22699;51.034;3.730;2022-12-11T13:42:58;3.60;99.90
36716;DHT22;22699;51.034;3.730;2022-12-11T13:45:39;3.40;99.90
36716;DHT22;22699;51.034;3.730;2022-12-11T13:48:20;3.40;99.90
36716;DHT22;22699;51.034;3.730;2022-12-11T13:50:48;3.60;99.90
36716;DHT22;22699;51.034;3.730;2022-12-11T13:53:17;3.60;99.90
36716;DHT22;22699;51.034;3.730;2022-12-11T13:55:45;3.70;99.90
36716;DHT22;22699;51.034;3.730;2022-12-11T13:58:19;3.40;99.90
36716;DHT22;22699;51.034;3.730;2022-12-11T14:01:02;3.40;99.90
36716;DHT22;22699;51.034;3.730;2022-12-11T14:03:30;3.30;99.90
36716;DHT22;22699;51.034;3.730;2022-12-11T14:06:01;3.20;99.90
36716;DHT22;22699;51.034;3.730;2022-12-11T14:08:32;3.20;99.90
36716;DHT22;22699;51.034;3.730;2022-12-11T14:11:01;3.20;99.90
36716;DHT22;22699;51.034;3.730;2022-12-11T14:13:38;3.30;99.90
36716;DHT22;22699;51.034;3.730;2022-12-11T14:16:06;3.40;99.90
36716;DHT22;22699;51.034;3.730;2022-12-11T14:18:34;3.40;99.90
36716;DHT22;22699;51.034;3.730;2022-12-11T14:21:03;3.30;99.90
36716;DHT22;22699;51.034;3.730;2022-12-11T14:23:36;3.30;99.90
36716;DHT22;22699;51.034;3.730;2022-12-11T14:26:14;3.30;99.90
36716;DHT22;22699;51.034;3.730;2022-12-11T14:28:41;3.30;99.90
36716;DHT22;22699;51.034;3.730;2022-12-11T14:31:13;3.50;99.90
36716;DHT22;22699;51.034;3.730;2022-12-11T14:33:44;3.50;99.90
36716;DHT22;22699;51.034;3.730;2022-12-11T14:36:15;3.30;99.90
36716;DHT22;22699;51.034;3.730;2022-12-11T14:38:48;3.10;99.90
36716;DHT22;22699;51.034;3.730;2022-12-11T14:41:28;2.90;99.90
36716;DHT22;22699;51.034;3.730;2022-12-11T14:43:58;2.90;99.90
36716;DHT22;22699;51.034;3.730;2022-12-11T14:46:47;3.10;99.90
36716;DHT22;22699;51.034;3.730;2022-12-11T14:52:05;3.30;99.90
36716;DHT22;22699;51.034;3.730;2022-12-11T14:54:39;3.40;99.90
36716;DHT22;22699;51.034;3.730;2022-12-11T14:57:07;3.20;99.90
36716;DHT22;22699;51.034;3.730;2022-12-11T14:59:44;3.30;99.90
36716;DHT22;22699;51.034;3.730;2022-12-11T15:02:34;3.40;99.90
36716;DHT22;22699;51.034;3.730;2022-12-11T15:05:18;3.40;99.90
36716;DHT22;22699;51.034;3.730;2022-12-11T15:10:34;3.30;99.90
36716;DHT22;22699;51.034;3.730;2022-12-11T15:13:02;3.50;99.90
36716;DHT22;22699;51.034;3.730;2022-12-11T15:15:30;3.40;99.90
36716;DHT22;22699;51.034;3.730;2022-12-11T15:18:22;3.50;99.90
36716;DHT22;22699;51.034;3.730;2022-12-11T15:21:00;3.60;99.90
36716;DHT22;22699;51.034;3.730;2022-12-11T15:23:29;3.40;99.90
36716;DHT22;22699;51.034;3.730;2022-12-11T15:26:02;3.70;99.90
36716;DHT22;22699;51.034;3.730;2022-12-11T15:28:32;3.30;99.90
36716;DHT22;22699;51.034;3.730;2022-12-11T15:31:27;3.20;99.90
36716;DHT22;22699;51.034;3.730;2022-12-11T15:33:54;3.20;99.90
36716;DHT22;22699;51.034;3.730;2022-12-11T15:36:33;3.10;99.90
36716;DHT22;22699;51.034;3.730;2022-12-11T15:39:09;3.20;99.90
36716;DHT22;22699;51.034;3.730;2022-12-11T15:41:41;3.10;99.90
36716;DHT22;22699;51.034;3.730;2022-12-11T15:44:32;3.00;99.90
36716;DHT22;22699;51.034;3.730;2022-12-11T15:47:28;3.00;99.90
36716;DHT22;22699;51.034;3.730;2022-12-11T15:49:59;3.20;99.90
36716;DHT22;22699;51.034;3.730;2022-12-11T15:52:27;3.10;99.90
36716;DHT22;22699;51.034;3.730;2022-12-11T15:54:53;3.20;99.90
36716;DHT22;22699;51.034;3.730;2022-12-11T15:57:21;3.20;99.90
36716;DHT22;22699;51.034;3.730;2022-12-11T15:59:51;3.40;99.90
36716;DHT22;22699;51.034;3.730;2022-12-11T16:02:30;3.30;99.90
36716;DHT22;22699;51.034;3.730;2022-12-11T16:04:57;3.30;99.90
36716;DHT22;22699;51.034;3.730;2022-12-11T16:07:25;3.40;99.90
36716;DHT22;22699;51.034;3.730;2022-12-11T16:09:52;3.50;99.90
36716;DHT22;22699;51.034;3.730;2022-12-11T16:12:29;3.40;99.90
36716;DHT22;22699;51.034;3.730;2022-12-11T16:15:13;3.40;99.90
36716;DHT22;22699;51.034;3.730;2022-12-11T16:17:41;3.40;99.90
36716;DHT22;22699;51.034;3.730;2022-12-11T16:20:25;3.30;99.90
36716;DHT22;22699;51.034;3.730;2022-12-11T16:22:59;3.30;99.90
36716;DHT22;22699;51.034;3.730;2022-12-11T16:25:53;3.30;99.90
36716;DHT22;22699;51.034;3.730;2022-12-11T16:28:23;3.30;99.90
36716;DHT22;22699;51.034;3.730;2022-12-11T16:30:49;3.30;99.90
36716;DHT22;22699;51.034;3.730;2022-12-11T16:33:15;3.40;99.90
36716;DHT22;22699;51.034;3.730;2022-12-11T16:35:46;3.40;99.90
36716;DHT22;22699;51.034;3.730;2022-12-11T16:38:12;3.20;99.90
36716;DHT22;22699;51.034;3.730;2022-12-11T16:40:40;3.30;99.90
36716;DHT22;22699;51.034;3.730;2022-12-11T16:43:11;3.30;99.90
36716;DHT22;22699;51.034;3.730;2022-12-11T16:45:37;3.30;99.90
36716;DHT22;22699;51.034;3.730;2022-12-11T16:48:03;3.20;99.90
36716;DHT22;22699;51.034;3.730;2022-12-11T16:50:53;3.10;99.90
36716;DHT22;22699;51.034;3.730;2022-12-11T16:53:25;3.10;99.90
36716;DHT22;22699;51.034;3.730;2022-12-11T16:55:52;3.00;99.90
36716;DHT22;22699;51.034;3.730;2022-12-11T16:58:20;3.10;99.90
36716;DHT22;22699;51.034;3.730;2022-12-11T17:00:49;3.00;99.90
36716;DHT22;22699;51.034;3.730;2022-12-11T17:03:19;3.00;99.90
36716;DHT22;22699;51.034;3.730;2022-12-11T17:05:46;3.10;99.90
36716;DHT22;22699;51.034;3.730;2022-12-11T17:08:11;3.00;99.90
36716;DHT22;22699;51.034;3.730;2022-12-11T17:10:39;3.00;99.90
36716;DHT22;22699;51.034;3.730;2022-12-11T17:13:05;2.90;99.90
36716;DHT22;22699;51.034;3.730;2022-12-11T17:15:33;2.80;99.90
36716;DHT22;22699;51.034;3.730;2022-12-11T17:18:00;2.90;99.90
36716;DHT22;22699;51.034;3.730;2022-12-11T17:20:26;2.70;99.90
36716;DHT22;22699;51.034;3.730;2022-12-11T17:22:52;2.60;99.90
36716;DHT22;22699;51.034;3.730;2022-12-11T17:25:18;2.60;99.90
36716;DHT22;22699;51.034;3.730;2022-12-11T17:27:48;2.50;99.90
36716;DHT22;22699;51.034;3.730;2022-12-11T17:30:14;2.60;99.90
36716;DHT22;22699;51.034;3.730;2022-12-11T17:32:40;2.60;99.90